Terminal Aerodrome Forecast
Issued by NWS

Home | Current Version | Previous Version | Text Only | Print | Product List | Glossary On
Versions: 1 2 3 4 5 6 7 8 9 10 11 12 13 14 15 16 17 18 19 20 21 22 23 24 25 26 27 28 29 30 31 32 33 34 35 36 37 38 39 40 41 42 43 44 45 46 47 48 49 50
323
FTUS43 KGRB 172332
TAFRHI
TAF
KRHI 172332Z 1800/1824 32003KT P6SM SCT023
     FM180600 26003KT 1SM BR OVC002
     FM181400 22008KT 3SM BR BKN005
     FM181700 22009KT P6SM SCT012=

USA.gov is the U.S. government's official web portal to all federal, state and local government web resources and services.